sensor_id;sensor_type;location;lat;lon;timestamp;pressure;altitude;pressure_sealevel;temperature;humidity
14067;BME280;7108;42.684;23.350;2023-01-30T00:00:34;95656.81;;;0.14;100.00
14067;BME280;7108;42.684;23.350;2023-01-30T00:03:04;95651.56;;;0.09;100.00
14067;BME280;7108;42.684;23.350;2023-01-30T00:05:29;95613.84;;;-0.06;100.00
14067;BME280;7108;42.684;23.350;2023-01-30T00:07:57;95643.63;;;0.09;100.00
14067;BME280;7108;42.684;23.350;2023-01-30T00:10:23;95609.56;;;-0.03;100.00
14067;BME280;7108;42.684;23.350;2023-01-30T00:12:51;95627.22;;;0.07;100.00
14067;BME280;7108;42.684;23.350;2023-01-30T00:15:17;95622.72;;;0.07;100.00
14067;BME280;7108;42.684;23.350;2023-01-30T00:17:42;95632.50;;;0.07;100.00
14067;BME280;7108;42.684;23.350;2023-01-30T00:20:08;95644.47;;;0.04;100.00
14067;BME280;7108;42.684;23.350;2023-01-30T00:22:34;95626.56;;;-0.03;100.00
14067;BME280;7108;42.684;23.350;2023-01-30T00:25:00;95644.22;;;0.01;100.00
14067;BME280;7108;42.684;23.350;2023-01-30T00:27:25;95634.22;;;-0.02;100.00
14067;BME280;7108;42.684;23.350;2023-01-30T00:29:50;95646.88;;;0.01;100.00
14067;BME280;7108;42.684;23.350;2023-01-30T00:32:16;95645.63;;;-0.06;100.00
14067;BME280;7108;42.684;23.350;2023-01-30T00:34:41;95638.31;;;-0.14;100.00
14067;BME280;7108;42.684;23.350;2023-01-30T00:37:07;95607.78;;;-0.30;100.00
14067;BME280;7108;42.684;23.350;2023-01-30T00:39:32;95616.44;;;-0.25;100.00
14067;BME280;7108;42.684;23.350;2023-01-30T00:42:01;95648.44;;;-0.21;100.00
14067;BME280;7108;42.684;23.350;2023-01-30T00:44:45;95632.03;;;-0.23;100.00
14067;BME280;7108;42.684;23.350;2023-01-30T00:47:29;95631.53;;;-0.25;100.00
14067;BME280;7108;42.684;23.350;2023-01-30T00:49:54;95613.34;;;-0.32;100.00
14067;BME280;7108;42.684;23.350;2023-01-30T00:52:19;95625.63;;;-0.17;100.00
14067;BME280;7108;42.684;23.350;2023-01-30T00:54:45;95586.75;;;-0.45;100.00
14067;BME280;7108;42.684;23.350;2023-01-30T00:57:10;95631.84;;;-0.27;100.00
14067;BME280;7108;42.684;23.350;2023-01-30T00:59:36;95631.25;;;-0.24;100.00
14067;BME280;7108;42.684;23.350;2023-01-30T01:02:01;95605.72;;;-0.38;100.00
14067;BME280;7108;42.684;23.350;2023-01-30T01:04:26;95624.09;;;-0.23;100.00
14067;BME280;7108;42.684;23.350;2023-01-30T01:06:52;95625.44;;;-0.26;100.00
14067;BME280;7108;42.684;23.350;2023-01-30T01:09:17;95629.72;;;-0.30;100.00
14067;BME280;7108;42.684;23.350;2023-01-30T01:11:43;95620.88;;;-0.44;100.00
14067;BME280;7108;42.684;23.350;2023-01-30T01:14:08;95617.91;;;-0.37;100.00
14067;BME280;7108;42.684;23.350;2023-01-30T01:16:34;95625.78;;;-0.32;100.00
14067;BME280;7108;42.684;23.350;2023-01-30T01:19:00;95607.06;;;-0.41;100.00
14067;BME280;7108;42.684;23.350;2023-01-30T01:21:26;95595.47;;;-0.45;100.00
14067;BME280;7108;42.684;23.350;2023-01-30T01:23:57;95606.13;;;-0.26;100.00
14067;BME280;7108;42.684;23.350;2023-01-30T01:26:23;95597.47;;;-0.32;100.00
14067;BME280;7108;42.684;23.350;2023-01-30T01:28:53;95604.06;;;-0.29;100.00
14067;BME280;7108;42.684;23.350;2023-01-30T01:31:19;95606.66;;;-0.24;100.00
14067;BME280;7108;42.684;23.350;2023-01-30T01:33:44;95601.13;;;-0.28;100.00
14067;BME280;7108;42.684;23.350;2023-01-30T01:36:10;95596.63;;;-0.27;100.00
14067;BME280;7108;42.684;23.350;2023-01-30T01:38:40;95594.53;;;-0.30;100.00
14067;BME280;7108;42.684;23.350;2023-01-30T01:41:05;95601.91;;;-0.27;100.00
14067;BME280;7108;42.684;23.350;2023-01-30T01:43:34;95604.78;;;-0.24;100.00
14067;BME280;7108;42.684;23.350;2023-01-30T01:46:19;95600.25;;;-0.18;100.00
14067;BME280;7108;42.684;23.350;2023-01-30T01:48:51;95607.31;;;-0.14;100.00
14067;BME280;7108;42.684;23.350;2023-01-30T01:54:10;95593.59;;;-0.16;100.00
14067;BME280;7108;42.684;23.350;2023-01-30T01:56:42;95595.03;;;-0.28;100.00
14067;BME280;7108;42.684;23.350;2023-01-30T01:59:25;95605.06;;;-0.25;100.00
14067;BME280;7108;42.684;23.350;2023-01-30T02:01:55;95601.63;;;-0.26;100.00
14067;BME280;7108;42.684;23.350;2023-01-30T02:04:24;95592.44;;;-0.33;100.00
14067;BME280;7108;42.684;23.350;2023-01-30T02:07:09;95591.59;;;-0.29;100.00
14067;BME280;7108;42.684;23.350;2023-01-30T02:09:35;95602.38;;;-0.20;100.00
14067;BME280;7108;42.684;23.350;2023-01-30T02:12:02;95596.84;;;-0.24;100.00
14067;BME280;7108;42.684;23.350;2023-01-30T02:14:30;95580.59;;;-0.41;100.00
14067;BME280;7108;42.684;23.350;2023-01-30T02:16:57;95608.22;;;-0.23;100.00
14067;BME280;7108;42.684;23.350;2023-01-30T02:22:27;95596.50;;;-0.17;100.00
14067;BME280;7108;42.684;23.350;2023-01-30T02:28:04;95608.22;;;-0.23;100.00
14067;BME280;7108;42.684;23.350;2023-01-30T02:44:54;95589.78;;;-0.33;100.00
14067;BME280;7108;42.684;23.350;2023-01-30T02:47:30;95551.78;;;-0.42;100.00
14067;BME280;7108;42.684;23.350;2023-01-30T02:50:09;95592.63;;;-0.25;100.00
14067;BME280;7108;42.684;23.350;2023-01-30T02:52:38;95578.03;;;-0.22;100.00
14067;BME280;7108;42.684;23.350;2023-01-30T02:55:22;95581.91;;;-0.15;100.00
14067;BME280;7108;42.684;23.350;2023-01-30T02:57:48;95565.44;;;-0.30;100.00
14067;BME280;7108;42.684;23.350;2023-01-30T03:00:18;95583.59;;;-0.24;100.00
14067;BME280;7108;42.684;23.350;2023-01-30T03:02:53;95591.16;;;-0.12;100.00
14067;BME280;7108;42.684;23.350;2023-01-30T03:05:52;95591.91;;;-0.07;100.00
14067;BME280;7108;42.684;23.350;2023-01-30T03:08:45;95588.31;;;-0.16;100.00
14067;BME280;7108;42.684;23.350;2023-01-30T03:11:12;95591.91;;;-0.30;100.00
14067;BME280;7108;42.684;23.350;2023-01-30T03:13:48;95588.50;;;-0.36;100.00
14067;BME280;7108;42.684;23.350;2023-01-30T03:16:24;95584.59;;;-0.43;100.00
14067;BME280;7108;42.684;23.350;2023-01-30T03:18:51;95536.47;;;-0.68;100.00
14067;BME280;7108;42.684;23.350;2023-01-30T03:21:17;95553.00;;;-0.58;100.00
14067;BME280;7108;42.684;23.350;2023-01-30T03:23:44;95567.19;;;-0.49;100.00
14067;BME280;7108;42.684;23.350;2023-01-30T03:26:17;95568.66;;;-0.38;100.00
14067;BME280;7108;42.684;23.350;2023-01-30T03:28:45;95564.97;;;-0.37;100.00
14067;BME280;7108;42.684;23.350;2023-01-30T03:31:12;95560.47;;;-0.37;100.00
14067;BME280;7108;42.684;23.350;2023-01-30T03:33:38;95556.72;;;-0.36;100.00
14067;BME280;7108;42.684;23.350;2023-01-30T03:36:03;95545.09;;;-0.35;100.00
14067;BME280;7108;42.684;23.350;2023-01-30T03:38:29;95556.97;;;-0.32;100.00
14067;BME280;7108;42.684;23.350;2023-01-30T03:40:55;95545.72;;;-0.43;100.00
14067;BME280;7108;42.684;23.350;2023-01-30T03:43:20;95521.66;;;-0.46;100.00
14067;BME280;7108;42.684;23.350;2023-01-30T03:45:45;95532.97;;;-0.41;100.00
14067;BME280;7108;42.684;23.350;2023-01-30T03:48:11;95543.78;;;-0.37;100.00
14067;BME280;7108;42.684;23.350;2023-01-30T03:50:36;95526.72;;;-0.50;100.00
14067;BME280;7108;42.684;23.350;2023-01-30T03:53:02;95536.47;;;-0.45;100.00
14067;BME280;7108;42.684;23.350;2023-01-30T03:55:27;95528.09;;;-0.52;100.00
14067;BME280;7108;42.684;23.350;2023-01-30T03:57:56;95545.16;;;-0.40;100.00
14067;BME280;7108;42.684;23.350;2023-01-30T04:00:22;95542.56;;;-0.45;100.00
14067;BME280;7108;42.684;23.350;2023-01-30T04:02:48;95546.00;;;-0.44;100.00
14067;BME280;7108;42.684;23.350;2023-01-30T04:05:13;95530.66;;;-0.47;100.00
14067;BME280;7108;42.684;23.350;2023-01-30T04:07:39;95528.78;;;-0.42;100.00
14067;BME280;7108;42.684;23.350;2023-01-30T04:10:05;95540.91;;;-0.41;100.00
14067;BME280;7108;42.684;23.350;2023-01-30T04:12:30;95522.00;;;-0.53;100.00
14067;BME280;7108;42.684;23.350;2023-01-30T04:14:56;95518.06;;;-0.55;100.00
14067;BME280;7108;42.684;23.350;2023-01-30T04:17:21;95540.47;;;-0.48;100.00
14067;BME280;7108;42.684;23.350;2023-01-30T04:19:47;95521.25;;;-0.58;100.00
14067;BME280;7108;42.684;23.350;2023-01-30T04:22:12;95511.75;;;-0.59;100.00
14067;BME280;7108;42.684;23.350;2023-01-30T04:24:37;95540.97;;;-0.46;100.00
14067;BME280;7108;42.684;23.350;2023-01-30T04:27:03;95540.75;;;-0.49;100.00
14067;BME280;7108;42.684;23.350;2023-01-30T04:29:28;95535.97;;;-0.47;100.00
14067;BME280;7108;42.684;23.350;2023-01-30T04:31:54;95544.47;;;-0.50;100.00
14067;BME280;7108;42.684;23.350;2023-01-30T04:34:19;95518.13;;;-0.60;100.00
14067;BME280;7108;42.684;23.350;2023-01-30T04:36:44;95526.00;;;-0.55;100.00
14067;BME280;7108;42.684;23.350;2023-01-30T04:39:10;95538.91;;;-0.49;100.00
14067;BME280;7108;42.684;23.350;2023-01-30T04:41:36;95514.25;;;-0.67;100.00
14067;BME280;7108;42.684;23.350;2023-01-30T04:44:01;95540.47;;;-0.48;100.00
14067;BME280;7108;42.684;23.350;2023-01-30T04:46:26;95526.91;;;-0.65;100.00
14067;BME280;7108;42.684;23.350;2023-01-30T04:48:52;95512.78;;;-0.55;100.00
14067;BME280;7108;42.684;23.350;2023-01-30T04:51:17;95521.63;;;-0.41;100.00
14067;BME280;7108;42.684;23.350;2023-01-30T04:53:43;95533.72;;;-0.35;100.00
14067;BME280;7108;42.684;23.350;2023-01-30T04:56:08;95517.16;;;-0.46;100.00
14067;BME280;7108;42.684;23.350;2023-01-30T04:58:34;95492.75;;;-0.61;100.00
14067;BME280;7108;42.684;23.350;2023-01-30T05:01:24;95522.44;;;-0.46;100.00
14067;BME280;7108;42.684;23.350;2023-01-30T05:03:54;95506.91;;;-0.52;100.00
14067;BME280;7108;42.684;23.350;2023-01-30T05:06:20;95500.63;;;-0.56;100.00
14067;BME280;7108;42.684;23.350;2023-01-30T05:08:50;95521.91;;;-0.43;100.00
14067;BME280;7108;42.684;23.350;2023-01-30T05:11:17;95522.13;;;-0.39;100.00
14067;BME280;7108;42.684;23.350;2023-01-30T05:13:42;95512.66;;;-0.45;100.00
14067;BME280;7108;42.684;23.350;2023-01-30T05:16:09;95513.22;;;-0.48;100.00
14067;BME280;7108;42.684;23.350;2023-01-30T05:18:34;95523.75;;;-0.43;100.00
14067;BME280;7108;42.684;23.350;2023-01-30T05:21:09;95533.16;;;-0.32;100.00
14067;BME280;7108;42.684;23.350;2023-01-30T05:23:35;95514.97;;;-0.39;100.00
14067;BME280;7108;42.684;23.350;2023-01-30T05:26:01;95522.22;;;-0.49;100.00
14067;BME280;7108;42.684;23.350;2023-01-30T05:28:27;95534.28;;;-0.38;100.00
14067;BME280;7108;42.684;23.350;2023-01-30T05:30:54;95533.50;;;-0.39;100.00
14067;BME280;7108;42.684;23.350;2023-01-30T05:33:19;95529.50;;;-0.36;100.00
14067;BME280;7108;42.684;23.350;2023-01-30T05:35:46;95512.72;;;-0.50;100.00
14067;BME280;7108;42.684;23.350;2023-01-30T05:38:12;95520.31;;;-0.44;100.00
14067;BME280;7108;42.684;23.350;2023-01-30T05:40:37;95542.31;;;-0.25;100.00
14067;BME280;7108;42.684;23.350;2023-01-30T05:43:03;95531.38;;;-0.37;100.00
14067;BME280;7108;42.684;23.350;2023-01-30T05:45:28;95522.78;;;-0.52;100.00
14067;BME280;7108;42.684;23.350;2023-01-30T05:47:54;95518.66;;;-0.63;100.00
14067;BME280;7108;42.684;23.350;2023-01-30T05:50:20;95539.25;;;-0.55;100.00
14067;BME280;7108;42.684;23.350;2023-01-30T05:52:45;95515.25;;;-0.64;100.00
14067;BME280;7108;42.684;23.350;2023-01-30T05:55:11;95540.53;;;-0.53;100.00
14067;BME280;7108;42.684;23.350;2023-01-30T05:57:36;95541.84;;;-0.50;100.00
14067;BME280;7108;42.684;23.350;2023-01-30T06:00:03;95545.81;;;-0.53;100.00
14067;BME280;7108;42.684;23.350;2023-01-30T06:02:29;95523.47;;;-0.65;100.00
14067;BME280;7108;42.684;23.350;2023-01-30T06:04:55;95527.84;;;-0.56;100.00
14067;BME280;7108;42.684;23.350;2023-01-30T06:07:21;95546.84;;;-0.49;100.00
14067;BME280;7108;42.684;23.350;2023-01-30T06:09:46;95538.44;;;-0.56;100.00
14067;BME280;7108;42.684;23.350;2023-01-30T06:12:12;95549.53;;;-0.54;100.00
14067;BME280;7108;42.684;23.350;2023-01-30T06:14:37;95527.19;;;-0.66;100.00
14067;BME280;7108;42.684;23.350;2023-01-30T06:17:03;95528.25;;;-0.67;100.00
14067;BME280;7108;42.684;23.350;2023-01-30T06:19:28;95518.50;;;-0.71;100.00
14067;BME280;7108;42.684;23.350;2023-01-30T06:21:54;95540.47;;;-0.48;100.00
14067;BME280;7108;42.684;23.350;2023-01-30T06:24:19;95532.06;;;-0.55;100.00
14067;BME280;7108;42.684;23.350;2023-01-30T06:26:45;95539.19;;;-0.50;100.00
14067;BME280;7108;42.684;23.350;2023-01-30T06:29:10;95530.00;;;-0.58;100.00
14067;BME280;7108;42.684;23.350;2023-01-30T06:31:36;95503.66;;;-0.67;100.00
14067;BME280;7108;42.684;23.350;2023-01-30T06:34:01;95500.09;;;-0.81;100.00
14067;BME280;7108;42.684;23.350;2023-01-30T06:36:27;95538.00;;;-0.63;100.00
14067;BME280;7108;42.684;23.350;2023-01-30T06:38:52;95519.31;;;-0.71;100.00
14067;BME280;7108;42.684;23.350;2023-01-30T06:41:18;95520.44;;;-0.54;100.00
14067;BME280;7108;42.684;23.350;2023-01-30T06:43:43;95530.78;;;-0.57;100.00
14067;BME280;7108;42.684;23.350;2023-01-30T06:46:09;95534.16;;;-0.52;100.00
14067;BME280;7108;42.684;23.350;2023-01-30T06:48:34;95541.94;;;-0.60;100.00
14067;BME280;7108;42.684;23.350;2023-01-30T06:51:00;95547.28;;;-0.65;100.00
14067;BME280;7108;42.684;23.350;2023-01-30T06:53:28;95548.34;;;-0.66;100.00
14067;BME280;7108;42.684;23.350;2023-01-30T06:55:58;95518.34;;;-0.85;100.00
14067;BME280;7108;42.684;23.350;2023-01-30T06:58:24;95524.16;;;-0.83;100.00
14067;BME280;7108;42.684;23.350;2023-01-30T07:00:50;95547.28;;;-0.65;100.00
14067;BME280;7108;42.684;23.350;2023-01-30T07:03:16;95549.06;;;-0.61;100.00
14067;BME280;7108;42.684;23.350;2023-01-30T07:05:44;95547.94;;;-0.55;100.00
14067;BME280;7108;42.684;23.350;2023-01-30T07:08:10;95558.53;;;-0.55;100.00
14067;BME280;7108;42.684;23.350;2023-01-30T07:10:37;95514.78;;;-0.70;100.00
14067;BME280;7108;42.684;23.350;2023-01-30T07:13:03;95561.13;;;-0.50;100.00
14067;BME280;7108;42.684;23.350;2023-01-30T07:15:29;95551.00;;;-0.43;100.00
14067;BME280;7108;42.684;23.350;2023-01-30T07:17:55;95550.72;;;-0.41;100.00
14067;BME280;7108;42.684;23.350;2023-01-30T07:20:20;95535.34;;;-0.63;100.00
14067;BME280;7108;42.684;23.350;2023-01-30T07:22:50;95558.78;;;-0.51;100.00
14067;BME280;7108;42.684;23.350;2023-01-30T07:25:17;95551.59;;;-0.51;100.00
14067;BME280;7108;42.684;23.350;2023-01-30T07:27:49;95553.03;;;-0.35;100.00
14067;BME280;7108;42.684;23.350;2023-01-30T07:30:14;95540.91;;;-0.41;100.00
14067;BME280;7108;42.684;23.350;2023-01-30T07:32:40;95557.91;;;-0.23;100.00
14067;BME280;7108;42.684;23.350;2023-01-30T07:35:05;95561.88;;;-0.21;100.00
14067;BME280;7108;42.684;23.350;2023-01-30T07:37:31;95555.91;;;-0.31;100.00
14067;BME280;7108;42.684;23.350;2023-01-30T07:39:56;95565.66;;;-0.27;100.00
14067;BME280;7108;42.684;23.350;2023-01-30T07:42:22;95575.56;;;-0.14;100.00
14067;BME280;7108;42.684;23.350;2023-01-30T07:44:47;95557.31;;;-0.15;100.00
14067;BME280;7108;42.684;23.350;2023-01-30T07:47:13;95557.03;;;-0.14;100.00
14067;BME280;7108;42.684;23.350;2023-01-30T07:49:39;95556.47;;;-0.11;100.00
14067;BME280;7108;42.684;23.350;2023-01-30T07:52:04;95553.97;;;-0.03;100.00
14067;BME280;7108;42.684;23.350;2023-01-30T07:54:30;95561.00;;;0.07;100.00
14067;BME280;7108;42.684;23.350;2023-01-30T07:56:55;95554.28;;;0.14;100.00
14067;BME280;7108;42.684;23.350;2023-01-30T07:59:21;95543.47;;;0.11;100.00
14067;BME280;7108;42.684;23.350;2023-01-30T08:01:46;95538.53;;;0.04;100.00
14067;BME280;7108;42.684;23.350;2023-01-30T08:04:12;95543.03;;;0.04;100.00
14067;BME280;7108;42.684;23.350;2023-01-30T08:06:37;95530.13;;;-0.03;100.00
14067;BME280;7108;42.684;23.350;2023-01-30T08:09:04;95538.81;;;0.03;100.00
14067;BME280;7108;42.684;23.350;2023-01-30T08:11:29;95531.22;;;-0.03;100.00
14067;BME280;7108;42.684;23.350;2023-01-30T08:13:55;95543.81;;;0.04;100.00
14067;BME280;7108;42.684;23.350;2023-01-30T08:16:20;95539.16;;;-0.03;100.00
14067;BME280;7108;42.684;23.350;2023-01-30T08:18:46;95523.22;;;0.01;100.00
14067;BME280;7108;42.684;23.350;2023-01-30T08:21:11;95520.13;;;-0.05;100.00
14067;BME280;7108;42.684;23.350;2023-01-30T08:23:36;95517.81;;;-0.12;100.00
14067;BME280;7108;42.684;23.350;2023-01-30T08:26:03;95516.75;;;-0.11;100.00
14067;BME280;7108;42.684;23.350;2023-01-30T08:28:29;95519.47;;;-0.16;100.00
14067;BME280;7108;42.684;23.350;2023-01-30T08:30:58;95513.50;;;-0.26;100.00
14067;BME280;7108;42.684;23.350;2023-01-30T08:33:24;95529.94;;;-0.06;100.00
14067;BME280;7108;42.684;23.350;2023-01-30T08:35:49;95521.56;;;0.05;100.00
14067;BME280;7108;42.684;23.350;2023-01-30T08:38:15;95515.34;;;0.15;100.00
14067;BME280;7108;42.684;23.350;2023-01-30T08:40:41;95520.13;;;0.13;100.00
14067;BME280;7108;42.684;23.350;2023-01-30T08:43:07;95498.66;;;-0.04;100.00
14067;BME280;7108;42.684;23.350;2023-01-30T08:45:32;95487.13;;;-0.13;100.00
14067;BME280;7108;42.684;23.350;2023-01-30T08:48:07;95506.66;;;-0.09;100.00
14067;BME280;7108;42.684;23.350;2023-01-30T08:50:32;95494.13;;;-0.22;100.00
14067;BME280;7108;42.684;23.350;2023-01-30T08:53:06;95512.06;;;-0.19;100.00
14067;BME280;7108;42.684;23.350;2023-01-30T08:55:33;95495.47;;;-0.24;100.00
14067;BME280;7108;42.684;23.350;2023-01-30T08:57:58;95501.00;;;-0.21;100.00
14067;BME280;7108;42.684;23.350;2023-01-30T09:00:25;95495.19;;;-0.23;100.00
14067;BME280;7108;42.684;23.350;2023-01-30T09:02:56;95478.94;;;-0.16;100.00
14067;BME280;7108;42.684;23.350;2023-01-30T09:05:23;95471.22;;;-0.13;100.00
14067;BME280;7108;42.684;23.350;2023-01-30T09:07:49;95480.97;;;-0.08;100.00
14067;BME280;7108;42.684;23.350;2023-01-30T09:10:15;95469.28;;;-0.07;100.00
14067;BME280;7108;42.684;23.350;2023-01-30T09:12:41;95477.38;;;0.01;100.00
14067;BME280;7108;42.684;23.350;2023-01-30T09:15:07;95468.44;;;-0.03;100.00
14067;BME280;7108;42.684;23.350;2023-01-30T09:17:33;95485.56;;;0.04;100.00
14067;BME280;7108;42.684;23.350;2023-01-30T09:19:58;95453.75;;;-0.14;100.00
14067;BME280;7108;42.684;23.350;2023-01-30T09:22:23;95490.69;;;-0.04;100.00
14067;BME280;7108;42.684;23.350;2023-01-30T09:24:49;95458.19;;;-0.28;100.00
14067;BME280;7108;42.684;23.350;2023-01-30T09:27:14;95461.31;;;-0.26;100.00
14067;BME280;7108;42.684;23.350;2023-01-30T09:29:40;95468.44;;;-0.21;100.00
14067;BME280;7108;42.684;23.350;2023-01-30T09:32:05;95475.75;;;-0.13;100.00
14067;BME280;7108;42.684;23.350;2023-01-30T09:34:30;95480.09;;;-0.04;100.00
14067;BME280;7108;42.684;23.350;2023-01-30T09:36:57;95485.91;;;-0.02;100.00
14067;BME280;7108;42.684;23.350;2023-01-30T09:39:24;95476.69;;;-0.04;100.00
14067;BME280;7108;42.684;23.350;2023-01-30T09:50:22;95468.09;;;0.03;100.00
14067;BME280;7108;42.684;23.350;2023-01-30T09:55:39;95442.69;;;-0.16;100.00
14067;BME280;7108;42.684;23.350;2023-01-30T09:58:16;95458.22;;;-0.09;100.00
14067;BME280;7108;42.684;23.350;2023-01-30T10:00:43;95435.38;;;-0.24;100.00
14067;BME280;7108;42.684;23.350;2023-01-30T10:05:42;95434.81;;;-0.03;100.00
14067;BME280;7108;42.684;23.350;2023-01-30T10:10:51;95426.84;;;-0.03;100.00
14067;BME280;7108;42.684;23.350;2023-01-30T10:18:42;95418.66;;;-0.19;100.00
14067;BME280;7108;42.684;23.350;2023-01-30T10:26:56;95405.81;;;-0.31;100.00
14067;BME280;7108;42.684;23.350;2023-01-30T10:29:35;95376.97;;;-0.51;100.00
14067;BME280;7108;42.684;23.350;2023-01-30T10:32:16;95391.59;;;-0.35;100.00
14067;BME280;7108;42.684;23.350;2023-01-30T10:34:49;95388.31;;;-0.27;100.00
14067;BME280;7108;42.684;23.350;2023-01-30T10:37:34;95376.91;;;-0.27;100.00
14067;BME280;7108;42.684;23.350;2023-01-30T10:43:32;95369.13;;;-0.37;100.00
14067;BME280;7108;42.684;23.350;2023-01-30T10:48:58;95367.22;;;-0.13;100.00
14067;BME280;7108;42.684;23.350;2023-01-30T10:54:15;95336.44;;;-0.09;100.00
14067;BME280;7108;42.684;23.350;2023-01-30T11:02:42;95326.06;;;-0.24;100.00
14067;BME280;7108;42.684;23.350;2023-01-30T11:05:19;95319.91;;;-0.20;100.00
14067;BME280;7108;42.684;23.350;2023-01-30T11:07:47;95292.44;;;-0.24;100.00
14067;BME280;7108;42.684;23.350;2023-01-30T11:10:25;95291.72;;;-0.11;100.00
14067;BME280;7108;42.684;23.350;2023-01-30T11:12:57;95299.19;;;0.00;100.00
14067;BME280;7108;42.684;23.350;2023-01-30T11:15:23;95293.03;;;0.05;100.00
14067;BME280;7108;42.684;23.350;2023-01-30T11:17:50;95278.19;;;-0.09;100.00
14067;BME280;7108;42.684;23.350;2023-01-30T11:20:27;95260.84;;;-0.02;100.00
14067;BME280;7108;42.684;23.350;2023-01-30T11:23:22;95273.63;;;0.09;100.00
14067;BME280;7108;42.684;23.350;2023-01-30T11:25:52;95275.13;;;0.29;100.00
14067;BME280;7108;42.684;23.350;2023-01-30T11:28:18;95244.78;;;0.08;100.00
14067;BME280;7108;42.684;23.350;2023-01-30T11:30:52;95264.91;;;0.09;100.00
14067;BME280;7108;42.684;23.350;2023-01-30T11:33:19;95259.47;;;0.00;100.00
14067;BME280;7108;42.684;23.350;2023-01-30T11:35:59;95250.47;;;0.01;100.00
14067;BME280;7108;42.684;23.350;2023-01-30T11:38:28;95257.63;;;0.14;100.00
14067;BME280;7108;42.684;23.350;2023-01-30T11:41:23;95247.16;;;0.23;100.00
14067;BME280;7108;42.684;23.350;2023-01-30T11:43:52;95243.38;;;-0.03;100.00
14067;BME280;7108;42.684;23.350;2023-01-30T11:46:23;95206.88;;;-0.19;100.00
14067;BME280;7108;42.684;23.350;2023-01-30T11:51:15;95233.59;;;0.11;100.00
14067;BME280;7108;42.684;23.350;2023-01-30T11:53:52;95226.44;;;0.11;100.00
14067;BME280;7108;42.684;23.350;2023-01-30T11:58:53;95189.06;;;-0.01;100.00
14067;BME280;7108;42.684;23.350;2023-01-30T12:01:28;95210.25;;;0.13;100.00
14067;BME280;7108;42.684;23.350;2023-01-30T12:03:56;95171.41;;;0.08;100.00
14067;BME280;7108;42.684;23.350;2023-01-30T12:08:53;95180.25;;;0.31;100.00
14067;BME280;7108;42.684;23.350;2023-01-30T12:14:36;95172.88;;;0.55;100.00
14067;BME280;7108;42.684;23.350;2023-01-30T12:17:45;95150.63;;;0.42;100.00
14067;BME280;7108;42.684;23.350;2023-01-30T12:25:41;95169.06;;;0.47;100.00
14067;BME280;7108;42.684;23.350;2023-01-30T12:33:43;95142.47;;;0.39;100.00
14067;BME280;7108;42.684;23.350;2023-01-30T12:38:44;95138.25;;;0.38;100.00
14067;BME280;7108;42.684;23.350;2023-01-30T12:46:47;95115.44;;;0.50;100.00
14067;BME280;7108;42.684;23.350;2023-01-30T12:52:25;95120.69;;;0.77;100.00
14067;BME280;7108;42.684;23.350;2023-01-30T12:57:38;95107.03;;;0.83;100.00
14067;BME280;7108;42.684;23.350;2023-01-30T13:08:04;95105.16;;;0.49;100.00
14067;BME280;7108;42.684;23.350;2023-01-30T13:10:55;95086.31;;;0.50;100.00
14067;BME280;7108;42.684;23.350;2023-01-30T13:13:29;95109.34;;;0.63;100.00
14067;BME280;7108;42.684;23.350;2023-01-30T13:21:46;95100.22;;;0.69;100.00
14067;BME280;7108;42.684;23.350;2023-01-30T13:27:10;95100.78;;;0.31;100.00
14067;BME280;7108;42.684;23.350;2023-01-30T13:29:39;95097.84;;;0.32;100.00
14067;BME280;7108;42.684;23.350;2023-01-30T13:32:16;95074.28;;;0.31;100.00
14067;BME280;7108;42.684;23.350;2023-01-30T13:34:46;95050.56;;;0.26;100.00
14067;BME280;7108;42.684;23.350;2023-01-30T13:37:14;95085.53;;;0.50;100.00
14067;BME280;7108;42.684;23.350;2023-01-30T13:39:52;95081.50;;;0.52;100.00
14067;BME280;7108;42.684;23.350;2023-01-30T13:44:52;95062.69;;;0.40;100.00
14067;BME280;7108;42.684;23.350;2023-01-30T13:53:40;95059.38;;;0.35;100.00
14067;BME280;7108;42.684;23.350;2023-01-30T13:55:56;95050.47;;;0.17;100.00
14067;BME280;7108;42.684;23.350;2023-01-30T13:58:52;95047.91;;;0.26;100.00
14067;BME280;7108;42.684;23.350;2023-01-30T14:01:19;95062.88;;;0.44;100.00
14067;BME280;7108;42.684;23.350;2023-01-30T14:03:47;95068.25;;;0.52;100.00
14067;BME280;7108;42.684;23.350;2023-01-30T14:06:33;95064.63;;;0.48;100.00
14067;BME280;7108;42.684;23.350;2023-01-30T14:09:04;95057.00;;;0.47;100.00
14067;BME280;7108;42.684;23.350;2023-01-30T14:11:56;95055.38;;;0.24;100.00
14067;BME280;7108;42.684;23.350;2023-01-30T14:14:29;95070.47;;;0.23;100.00
14067;BME280;7108;42.684;23.350;2023-01-30T14:17:07;95063.03;;;0.12;100.00
14067;BME280;7108;42.684;23.350;2023-01-30T14:20:16;95067.03;;;0.23;100.00
14067;BME280;7108;42.684;23.350;2023-01-30T14:22:52;95056.44;;;0.23;100.00
14067;BME280;7108;42.684;23.350;2023-01-30T14:27:48;95056.75;;;0.21;100.00
14067;BME280;7108;42.684;23.350;2023-01-30T14:30:51;95065.84;;;0.29;100.00
14067;BME280;7108;42.684;23.350;2023-01-30T14:38:41;95042.25;;;0.05;100.00
14067;BME280;7108;42.684;23.350;2023-01-30T14:48:50;95037.16;;;0.09;100.00
14067;BME280;7108;42.684;23.350;2023-01-30T14:56:13;95015.69;;;-0.03;100.00
14067;BME280;7108;42.684;23.350;2023-01-30T14:58:58;95044.38;;;0.17;100.00
14067;BME280;7108;42.684;23.350;2023-01-30T15:01:25;95035.38;;;0.04;100.00
14067;BME280;7108;42.684;23.350;2023-01-30T15:03:51;95031.88;;;-0.04;100.00
14067;BME280;7108;42.684;23.350;2023-01-30T15:06:17;95025.09;;;0.03;100.00
14067;BME280;7108;42.684;23.350;2023-01-30T15:08:47;95033.81;;;0.03;100.00
14067;BME280;7108;42.684;23.350;2023-01-30T15:11:28;95013.13;;;-0.08;100.00
14067;BME280;7108;42.684;23.350;2023-01-30T15:14:21;95040.88;;;-0.05;100.00
14067;BME280;7108;42.684;23.350;2023-01-30T15:19:55;95046.28;;;-0.10;100.00
14067;BME280;7108;42.684;23.350;2023-01-30T15:22:37;95045.88;;;-0.04;100.00
14067;BME280;7108;42.684;23.350;2023-01-30T15:25:23;95038.03;;;-0.22;100.00
14067;BME280;7108;42.684;23.350;2023-01-30T15:28:18;95015.78;;;-0.35;100.00
14067;BME280;7108;42.684;23.350;2023-01-30T15:30:56;95030.09;;;-0.36;100.00
14067;BME280;7108;42.684;23.350;2023-01-30T15:33:26;95031.09;;;-0.32;100.00